Time;durP1;ratioP1;P1;durP2;ratioP2;P2;SDS_P1;SDS_P2;PMS_P1;PMS_P2;Temp;Humidity;BMP_temperature;BMP_pressure;BME280_temperature;BME280_humidity;BME280_pressure;Samples;Min_cycle;Max_cycle;Signal;HPM_P1;HPM_P2
2022/01/20 00:00:21;;;;;;;;;;;;;;;1.00;78.01;98531.52;1691247;85;20117;-38
2022/01/20 00:02:56;;;;;;;;;;;;;;;1.04;77.94;98522.80;1693617;83;20113;-38
2022/01/20 00:26:55;;;;;;;;;;;;;;;1.02;78.37;98468.47;1693941;85;20189;-37
2022/01/20 00:29:28;;;;;;;;;;;;;;;1.04;78.42;98470.56;1693609;83;20117;-37
2022/01/20 00:32:05;;;;;;;;;;;;;;;1.04;78.48;98462.79;1693005;83;20117;-37
2022/01/20 00:34:31;;;;;;;;;;;;;;;1.04;78.37;98455.02;1691117;83;20438;-36
2022/01/20 00:39:30;;;;;;;;;;;;;;;1.10;78.33;98453.53;1693607;85;20113;-37
2022/01/20 00:41:56;;;;;;;;;;;;;;;1.13;78.37;98455.20;1693735;83;20101;-37
2022/01/20 00:44:23;;;;;;;;;;;;;;;1.15;78.27;98437.87;1693766;83;20105;-37
2022/01/20 00:46:49;;;;;;;;;;;;;;;1.20;78.35;98433.83;1693709;85;20120;-37
2022/01/20 00:49:15;;;;;;;;;;;;;;;1.16;78.26;98433.07;1693807;83;20102;-38
2022/01/20 00:51:42;;;;;;;;;;;;;;;1.19;78.21;98432.98;1693719;85;20105;-38
2022/01/20 00:54:07;;;;;;;;;;;;;;;1.22;78.09;98426.42;1693783;83;20101;-37
2022/01/20 00:56:33;;;;;;;;;;;;;;;1.21;78.28;98425.17;1693793;82;20113;-38
2022/01/20 00:58:58;;;;;;;;;;;;;;;1.24;78.22;98416.02;1693763;85;20116;-38
2022/01/20 01:01:25;;;;;;;;;;;;;;;1.24;78.31;98427.22;1693776;85;20145;-38
2022/01/20 01:03:50;;;;;;;;;;;;;;;1.20;78.49;98422.17;1693708;85;20130;-38
2022/01/20 01:08:43;;;;;;;;;;;;;;;1.21;78.78;98423.87;1693750;83;20113;-37
2022/01/20 01:11:09;;;;;;;;;;;;;;;1.24;79.02;98427.67;1693723;85;20102;-38
2022/01/20 01:13:35;;;;;;;;;;;;;;;1.22;78.86;98426.42;1693778;83;20105;-37
2022/01/20 01:16:01;;;;;;;;;;;;;;;1.28;79.07;98417.16;1693783;83;20418;-37
2022/01/20 01:23:55;;;;;;;;;;;;;;;1.17;80.64;98412.77;1693754;83;20409;-37
2022/01/20 01:26:23;;;;;;;;;;;;;;;1.18;81.14;98421.38;1693794;83;20109;-37
2022/01/20 01:28:49;;;;;;;;;;;;;;;1.20;80.91;98408.80;1693669;83;20549;-37
2022/01/20 01:34:02;;;;;;;;;;;;;;;1.16;82.31;98403.29;1693754;83;20117;-37
2022/01/20 01:36:28;;;;;;;;;;;;;;;1.11;82.54;98393.52;1693258;85;20109;-37
2022/01/20 01:38:54;;;;;;;;;;;;;;;1.13;82.97;98387.41;1693743;82;20109;-37
2022/01/20 01:41:36;;;;;;;;;;;;;;;1.07;83.71;98381.57;1693692;85;20117;-37
2022/01/20 01:43:56;;;;;;;;;;;;;;;1.01;84.44;98370.97;1692453;85;20113;-37
2022/01/20 01:46:22;;;;;;;;;;;;;;;1.08;83.65;98372.92;1693726;83;20105;-37
2022/01/20 01:48:47;;;;;;;;;;;;;;;1.09;83.83;98363.81;1714595;83;20100;-37
2022/01/20 01:51:13;;;;;;;;;;;;;;;1.02;84.45;98357.14;1722344;83;20140;-37
2022/01/20 01:53:40;;;;;;;;;;;;;;;1.00;84.97;98350.30;1722257;83;20117;-37
2022/01/20 01:56:07;;;;;;;;;;;;;;;0.99;85.39;98349.45;1722251;83;20418;-37
2022/01/20 01:58:32;;;;;;;;;;;;;;;0.91;88.68;98351.00;1722222;83;20422;-37
2022/01/20 02:00:58;;;;;;;;;;;;;;;0.93;91.27;98351.80;1722314;83;20157;-37
2022/01/20 02:03:24;;;;;;;;;;;;;;;0.95;92.02;98349.16;1722260;83;20509;-36
2022/01/20 02:08:43;;;;;;;;;;;;;;;0.96;92.31;98340.48;1722120;83;20177;-37
2022/01/20 02:19:17;;;;;;;;;;;;;;;1.03;88.52;98330.79;1722323;83;20104;-37
2022/01/20 02:21:51;;;;;;;;;;;;;;;1.02;87.25;98320.89;1722207;83;20145;-37
2022/01/20 02:24:18;;;;;;;;;;;;;;;0.96;88.25;98313.30;1717337;83;20105;-37
2022/01/20 02:26:43;;;;;;;;;;;;;;;0.92;88.65;98297.48;1722127;82;20133;-37
2022/01/20 02:29:10;;;;;;;;;;;;;;;0.94;88.92;98299.11;1722189;83;20331;-38
2022/01/20 02:31:36;;;;;;;;;;;;;;;0.97;88.69;98299.47;1722168;83;20133;-38
2022/01/20 02:34:01;;;;;;;;;;;;;;;0.91;88.82;98301.81;1722232;83;20586;-38
2022/01/20 02:36:28;;;;;;;;;;;;;;;0.93;89.17;98293.55;1722241;83;20105;-38
2022/01/20 02:39:08;;;;;;;;;;;;;;;0.97;89.15;98289.13;1722192;83;20434;-38
2022/01/20 02:46:10;;;;;;;;;;;;;;;0.99;89.65;98293.80;1764147;81;20148;-37
2022/01/20 02:48:36;;;;;;;;;;;;;;;1.03;89.27;98281.14;1764472;80;20099;-37
2022/01/20 02:51:02;;;;;;;;;;;;;;;1.02;89.60;98273.00;1764457;81;20416;-37
2022/01/20 02:53:27;;;;;;;;;;;;;;;0.97;89.79;98270.16;1764577;81;20523;-36
2022/01/20 02:55:53;;;;;;;;;;;;;;;0.99;90.06;98260.59;1764434;81;20436;-36
2022/01/20 02:58:19;;;;;;;;;;;;;;;0.99;89.98;98261.89;1764465;80;20425;-36
2022/01/20 03:00:45;;;;;;;;;;;;;;;1.02;89.67;98259.18;1764405;81;20175;-37
2022/01/20 03:03:12;;;;;;;;;;;;;;;1.02;89.79;98250.13;1764409;81;20101;-37
2022/01/20 03:05:37;;;;;;;;;;;;;;;0.99;90.15;98238.14;1764390;81;20149;-37
2022/01/20 03:08:03;;;;;;;;;;;;;;;0.98;89.91;98233.84;1764415;80;20164;-37
2022/01/20 03:10:29;;;;;;;;;;;;;;;1.00;89.98;98230.78;1764438;81;20144;-37
2022/01/20 03:12:56;;;;;;;;;;;;;;;0.96;90.01;98234.34;1764456;80;20104;-38
2022/01/20 03:15:23;;;;;;;;;;;;;;;0.91;90.40;98240.98;1764557;81;20092;-38
2022/01/20 03:17:48;;;;;;;;;;;;;;;0.93;90.59;98230.13;1764432;81;20136;-38
2022/01/20 03:20:14;;;;;;;;;;;;;;;1.02;90.49;98239.77;1764398;81;20421;-38
2022/01/20 03:22:40;;;;;;;;;;;;;;;0.97;90.73;98228.28;1764352;81;20403;-38
2022/01/20 03:25:07;;;;;;;;;;;;;;;1.04;90.60;98232.36;1764430;80;20132;-38
2022/01/20 03:27:32;;;;;;;;;;;;;;;1.01;90.75;98214.79;1764382;80;20140;-38
2022/01/20 03:29:58;;;;;;;;;;;;;;;1.03;90.76;98210.40;1764449;81;20433;-38
2022/01/20 03:32:23;;;;;;;;;;;;;;;1.06;90.70;98211.14;1764408;80;20380;-38
2022/01/20 03:34:49;;;;;;;;;;;;;;;1.12;90.34;98207.50;1764374;81;20128;-38
2022/01/20 03:37:15;;;;;;;;;;;;;;;1.15;90.16;98217.30;1764362;81;20112;-38
2022/01/20 03:39:41;;;;;;;;;;;;;;;1.13;90.42;98203.56;1764444;81;20409;-37
2022/01/20 03:42:06;;;;;;;;;;;;;;;1.11;90.49;98195.01;1764348;80;20101;-37
2022/01/20 03:44:32;;;;;;;;;;;;;;;1.13;90.51;98209.20;1764647;81;20128;-37
2022/01/20 03:47:00;;;;;;;;;;;;;;;1.18;90.32;98216.80;1764670;81;20124;-38
2022/01/20 03:49:36;;;;;;;;;;;;;;;1.15;90.16;98217.76;1764444;81;20100;-37
2022/01/20 03:51:54;;;;;;;;;;;;;;;1.10;90.95;98223.08;1762174;81;20092;-38
2022/01/20 03:54:20;;;;;;;;;;;;;;;1.14;90.96;98217.34;1764182;81;20105;-38
2022/01/20 03:56:46;;;;;;;;;;;;;;;1.16;90.91;98225.91;1764043;80;20136;-37
2022/01/20 03:59:11;;;;;;;;;;;;;;;1.20;90.72;98227.94;1764200;81;20144;-38
2022/01/20 04:01:37;;;;;;;;;;;;;;;1.24;90.39;98232.98;1764112;81;20404;-37
2022/01/20 04:04:02;;;;;;;;;;;;;;;1.18;91.31;98209.03;1764269;81;20128;-37
2022/01/20 04:06:28;;;;;;;;;;;;;;;1.16;90.96;98209.08;1764053;81;20136;-38
2022/01/20 04:08:54;;;;;;;;;;;;;;;1.24;90.85;98199.77;1764121;81;20136;-37
2022/01/20 04:11:25;;;;;;;;;;;;;;;1.22;90.65;98201.11;1764149;81;20460;-38
2022/01/20 04:13:52;;;;;;;;;;;;;;;1.23;90.66;98198.06;1764116;81;20112;-37
2022/01/20 04:16:21;;;;;;;;;;;;;;;1.18;90.82;98185.26;1764073;81;20113;-38
2022/01/20 04:18:54;;;;;;;;;;;;;;;1.18;91.67;98185.72;1764065;81;20100;-38
2022/01/20 04:21:21;;;;;;;;;;;;;;;1.24;91.26;98181.18;1764012;81;20116;-38
2022/01/20 04:23:47;;;;;;;;;;;;;;;1.26;90.95;98190.20;1763998;81;20144;-38
2022/01/20 04:26:12;;;;;;;;;;;;;;;1.27;91.13;98195.75;1764069;81;20105;-37
2022/01/20 04:28:38;;;;;;;;;;;;;;;1.26;91.12;98194.08;1764077;81;20135;-38
2022/01/20 04:31:03;;;;;;;;;;;;;;;1.24;91.23;98190.24;1764073;81;20112;-38
2022/01/20 04:33:29;;;;;;;;;;;;;;;1.29;91.27;98195.25;1764119;81;20408;-37
2022/01/20 04:35:54;;;;;;;;;;;;;;;1.31;91.26;98190.85;1764113;81;20149;-37
2022/01/20 04:38:20;;;;;;;;;;;;;;;1.31;91.14;98189.13;1764023;81;20136;-37
2022/01/20 04:40:46;;;;;;;;;;;;;;;1.33;91.05;98187.78;1764058;81;20111;-37
2022/01/20 04:43:11;;;;;;;;;;;;;;;1.36;91.12;98190.70;1754697;81;20133;-38
2022/01/20 04:45:45;;;;;;;;;;;;;;;1.38;91.13;98184.55;1750699;82;20109;-37
2022/01/20 04:58:59;;;;;;;;;;;;;;;1.43;91.22;98193.02;1750688;82;20133;-39
2022/01/20 05:01:24;;;;;;;;;;;;;;;1.41;90.81;98193.52;1750717;82;20409;-38
2022/01/20 05:03:50;;;;;;;;;;;;;;;1.41;90.55;98200.00;1750667;81;20109;-38
2022/01/20 05:06:16;;;;;;;;;;;;;;;1.43;90.26;98196.90;1750661;81;20149;-38
2022/01/20 05:08:41;;;;;;;;;;;;;;;1.49;90.04;98197.99;1750659;81;20105;-38
2022/01/20 05:11:09;;;;;;;;;;;;;;;1.49;89.83;98210.95;1750649;81;20410;-37
2022/01/20 05:13:38;;;;;;;;;;;;;;;1.51;90.03;98207.84;1750527;81;20101;-37
2022/01/20 05:16:03;;;;;;;;;;;;;;;1.52;89.79;98205.63;1750549;81;20481;-37
2022/01/20 05:18:29;;;;;;;;;;;;;;;1.54;89.87;98194.76;1750782;81;20137;-38
2022/01/20 05:20:56;;;;;;;;;;;;;;;1.57;89.81;98199.46;1750749;81;20109;-37
2022/01/20 05:23:21;;;;;;;;;;;;;;;1.54;89.48;98201.23;1750683;81;20117;-38
2022/01/20 05:25:47;;;;;;;;;;;;;;;1.54;89.45;98190.03;1750666;81;20543;-37
2022/01/20 05:28:12;;;;;;;;;;;;;;;1.52;89.31;98190.09;1750591;81;20169;-38
2022/01/20 05:30:40;;;;;;;;;;;;;;;1.62;89.03;98184.56;1750647;82;20105;-38
2022/01/20 05:33:06;;;;;;;;;;;;;;;1.56;88.96;98186.09;1750669;82;20101;-37
2022/01/20 05:35:32;;;;;;;;;;;;;;;1.62;88.92;98185.86;1750690;81;20105;-37
2022/01/20 05:37:58;;;;;;;;;;;;;;;1.58;89.12;98180.41;1750667;82;20109;-38
2022/01/20 05:40:23;;;;;;;;;;;;;;;1.62;89.01;98179.38;1750658;81;20112;-37
2022/01/20 05:42:49;;;;;;;;;;;;;;;1.58;88.62;98180.41;1750597;80;20113;-38
2022/01/20 05:45:15;;;;;;;;;;;;;;;1.67;88.64;98183.95;1750639;81;20100;-38
2022/01/20 05:47:45;;;;;;;;;;;;;;;1.65;88.54;98168.45;1750707;82;20133;-38
2022/01/20 05:50:13;;;;;;;;;;;;;;;1.64;88.70;98167.24;1750459;81;20136;-38
2022/01/20 05:52:41;;;;;;;;;;;;;;;1.66;88.39;98162.84;1750605;82;20101;-37
2022/01/20 05:55:08;;;;;;;;;;;;;;;1.67;87.88;98177.05;1750476;81;20181;-38
2022/01/20 05:57:35;;;;;;;;;;;;;;;1.66;87.55;98170.62;1750433;81;20128;-38
2022/01/20 06:00:01;;;;;;;;;;;;;;;1.57;86.68;98184.75;1750609;82;20145;-37
2022/01/20 06:03:35;;;;;;;;;;;;;;;1.54;85.98;98167.55;1750604;81;20113;-38
2022/01/20 06:04:54;;;;;;;;;;;;;;;1.54;85.67;98172.73;1745913;82;20428;-38
2022/01/20 06:07:20;;;;;;;;;;;;;;;1.52;85.34;98192.67;1750668;81;20354;-38
2022/01/20 06:09:46;;;;;;;;;;;;;;;1.48;84.17;98193.70;1750635;81;20109;-37
2022/01/20 06:12:11;;;;;;;;;;;;;;;1.44;82.79;98196.02;1750670;82;20446;-38
2022/01/20 06:14:37;;;;;;;;;;;;;;;1.40;82.41;98195.73;1750673;82;20093;-38
2022/01/20 06:17:03;;;;;;;;;;;;;;;1.30;81.42;98202.13;1750587;81;20105;-37
2022/01/20 06:19:29;;;;;;;;;;;;;;;1.27;80.84;98185.39;1750637;82;20100;-38
2022/01/20 06:21:54;;;;;;;;;;;;;;;1.17;80.49;98206.06;1750560;82;20453;-38
2022/01/20 06:24:20;;;;;;;;;;;;;;;1.18;80.25;98183.12;1750626;81;20109;-39
2022/01/20 06:26:45;;;;;;;;;;;;;;;1.07;80.14;98190.81;1750693;81;20457;-38
2022/01/20 06:29:11;;;;;;;;;;;;;;;1.13;80.55;98193.66;1750573;82;20105;-38
2022/01/20 06:31:37;;;;;;;;;;;;;;;1.11;79.92;98197.59;1750627;81;20153;-38
2022/01/20 06:34:02;;;;;;;;;;;;;;;0.93;79.17;98191.76;1750630;82;20113;-38
2022/01/20 06:36:28;;;;;;;;;;;;;;;1.00;79.44;98200.14;1750636;81;20405;-37
2022/01/20 06:38:54;;;;;;;;;;;;;;;0.97;79.38;98192.05;1750578;81;20157;-37
2022/01/20 06:41:19;;;;;;;;;;;;;;;0.92;78.92;98178.41;1750574;82;20117;-38
2022/01/20 06:43:45;;;;;;;;;;;;;;;0.85;79.03;98185.98;1759838;80;20112;-38
2022/01/20 06:46:11;;;;;;;;;;;;;;;0.83;78.82;98187.78;1764029;81;20112;-38
2022/01/20 06:48:36;;;;;;;;;;;;;;;0.85;78.66;98193.75;1764074;81;20413;-38
2022/01/20 06:51:02;;;;;;;;;;;;;;;0.85;78.64;98188.57;1763969;81;20108;-38
2022/01/20 06:53:27;;;;;;;;;;;;;;;0.81;78.54;98189.12;1763963;81;20112;-37
2022/01/20 06:55:53;;;;;;;;;;;;;;;0.85;78.16;98184.69;1763886;81;20108;-37
2022/01/20 06:58:21;;;;;;;;;;;;;;;0.79;78.19;98212.08;1764061;81;20112;-37
2022/01/20 07:00:46;;;;;;;;;;;;;;;0.83;78.31;98198.13;1763791;81;20133;-37
2022/01/20 07:03:11;;;;;;;;;;;;;;;0.74;77.43;98190.22;1763943;81;20108;-38
2022/01/20 07:05:37;;;;;;;;;;;;;;;0.80;77.72;98182.70;1764005;81;20112;-37
2022/01/20 07:08:03;;;;;;;;;;;;;;;0.73;77.41;98191.97;1763970;81;20164;-37
2022/01/20 07:10:29;;;;;;;;;;;;;;;0.68;77.23;98189.98;1763893;81;20442;-37
2022/01/20 07:12:55;;;;;;;;;;;;;;;0.74;77.58;98193.64;1764021;81;20124;-37
2022/01/20 07:15:20;;;;;;;;;;;;;;;0.72;77.46;98185.55;1764018;81;20105;-39
2022/01/20 07:17:46;;;;;;;;;;;;;;;0.71;77.63;98191.61;1764224;81;20101;-37
2022/01/20 07:20:13;;;;;;;;;;;;;;;0.73;77.84;98197.60;1764073;81;20449;-37
2022/01/20 07:22:39;;;;;;;;;;;;;;;0.74;77.82;98212.22;1763928;81;20092;-39
2022/01/20 07:25:05;;;;;;;;;;;;;;;0.80;78.32;98206.86;1763941;81;20124;-47
2022/01/20 07:27:31;;;;;;;;;;;;;;;0.82;78.18;98201.17;1763991;81;20108;-40
2022/01/20 07:29:56;;;;;;;;;;;;;;;0.91;78.24;98192.23;1764116;81;20107;-42
2022/01/20 07:32:22;;;;;;;;;;;;;;;0.97;78.13;98199.81;1764183;81;20421;-42
2022/01/20 07:34:47;;;;;;;;;;;;;;;1.06;78.61;98181.37;1764120;81;20096;-38
2022/01/20 07:37:13;;;;;;;;;;;;;;;1.08;78.20;98183.91;1764149;81;20172;-38
2022/01/20 07:39:38;;;;;;;;;;;;;;;1.13;78.51;98194.96;1764067;80;20112;-38
2022/01/20 07:42:05;;;;;;;;;;;;;;;1.14;78.42;98182.39;1764138;81;20413;-38
2022/01/20 07:44:30;;;;;;;;;;;;;;;1.19;78.32;98189.55;1752034;80;20461;-38
2022/01/20 07:46:57;;;;;;;;;;;;;;;1.18;78.07;98181.38;1750815;82;20093;-37
2022/01/20 07:49:23;;;;;;;;;;;;;;;1.21;78.11;98182.58;1750822;81;20105;-38
2022/01/20 07:51:48;;;;;;;;;;;;;;;1.29;78.13;98183.59;1750715;81;20105;-38
2022/01/20 07:54:14;;;;;;;;;;;;;;;1.36;78.35;98177.30;1750706;82;20112;-37
2022/01/20 07:56:39;;;;;;;;;;;;;;;1.37;78.00;98171.69;1750792;81;20104;-38
2022/01/20 07:59:06;;;;;;;;;;;;;;;1.40;78.00;98167.23;1750739;81;20132;-38
2022/01/20 08:01:32;;;;;;;;;;;;;;;1.45;78.39;98171.78;1750731;82;20109;-38
2022/01/20 08:03:57;;;;;;;;;;;;;;;1.38;77.95;98162.53;1750733;82;20129;-38
2022/01/20 08:06:23;;;;;;;;;;;;;;;1.29;77.62;98161.58;1750738;81;20106;-38
2022/01/20 08:08:50;;;;;;;;;;;;;;;1.38;77.95;98150.88;1750718;81;20112;-38
2022/01/20 08:11:17;;;;;;;;;;;;;;;1.41;78.10;98140.41;1750782;82;20093;-38
2022/01/20 08:13:43;;;;;;;;;;;;;;;1.49;78.08;98155.24;1750824;81;20429;-38
2022/01/20 08:16:09;;;;;;;;;;;;;;;1.47;77.89;98149.25;1750756;81;20137;-38
2022/01/20 08:18:35;;;;;;;;;;;;;;;1.48;77.58;98154.00;1750790;81;20113;-39
2022/01/20 08:21:00;;;;;;;;;;;;;;;1.46;77.75;98156.64;1750783;81;20113;-38
2022/01/20 08:23:26;;;;;;;;;;;;;;;1.49;77.66;98156.97;1750595;82;20113;-38
2022/01/20 08:25:52;;;;;;;;;;;;;;;1.38;77.38;98134.05;1750779;82;20105;-38
2022/01/20 08:28:21;;;;;;;;;;;;;;;1.43;77.60;98142.50;1750709;82;20105;-39
2022/01/20 08:30:45;;;;;;;;;;;;;;;1.47;77.75;98154.42;1750495;82;20185;-39
2022/01/20 08:33:10;;;;;;;;;;;;;;;1.37;79.04;98245.05;1750691;81;20136;-39
2022/01/20 08:35:36;;;;;;;;;;;;;;;0.92;83.14;98258.19;1750737;82;20441;-39
2022/01/20 08:38:03;;;;;;;;;;;;;;;0.18;84.66;98245.00;1750716;81;20145;-39
2022/01/20 08:40:30;;;;;;;;;;;;;;;-0.47;85.99;98233.55;1750705;81;20097;-39
2022/01/20 08:42:56;;;;;;;;;;;;;;;-0.88;88.24;98236.33;1752404;81;20117;-39
2022/01/20 08:45:25;;;;;;;;;;;;;;;-1.10;90.13;98234.74;1764057;81;20116;-39
2022/01/20 08:47:54;;;;;;;;;;;;;;;-1.27;90.81;98223.56;1764068;81;20108;-39
2022/01/20 08:50:19;;;;;;;;;;;;;;;-1.42;91.05;98216.19;1763781;81;20109;-40
2022/01/20 08:52:45;;;;;;;;;;;;;;;-1.51;91.33;98219.86;1764025;81;20151;-40
2022/01/20 08:55:11;;;;;;;;;;;;;;;-1.61;91.13;98225.66;1764087;81;20104;-40
2022/01/20 08:57:36;;;;;;;;;;;;;;;-1.56;97.35;98198.48;1764179;81;20112;-39
2022/01/20 09:00:03;;;;;;;;;;;;;;;-1.55;94.91;98204.91;1764081;81;20683;-39
2022/01/20 09:02:30;;;;;;;;;;;;;;;-1.50;92.89;98199.62;1764183;81;20137;-40
2022/01/20 09:04:56;;;;;;;;;;;;;;;-1.45;91.76;98191.78;1764032;81;20132;-37
2022/01/20 09:07:21;;;;;;;;;;;;;;;-1.40;90.77;98182.17;1764077;81;20112;-40
2022/01/20 09:09:48;;;;;;;;;;;;;;;-1.42;89.98;98200.71;1764082;81;20100;-40
2022/01/20 09:15:27;;;;;;;;;;;;;;;-1.32;89.75;98188.45;1764039;81;20111;-39
2022/01/20 09:17:31;;;;;;;;;;;;;;;-0.96;88.01;98176.34;1764073;81;20112;-40
2022/01/20 09:19:57;;;;;;;;;;;;;;;-0.81;87.65;98189.27;1764033;81;20100;-39
2022/01/20 09:22:24;;;;;;;;;;;;;;;-0.89;86.68;98155.94;1764180;81;20108;-39
2022/01/20 09:24:49;;;;;;;;;;;;;;;-0.90;86.61;98166.30;1764055;81;20100;-39
2022/01/20 09:27:15;;;;;;;;;;;;;;;-1.03;85.98;98176.94;1764012;80;20120;-38
2022/01/20 09:29:41;;;;;;;;;;;;;;;-0.96;85.87;98193.11;1764040;81;20125;-40
2022/01/20 09:32:10;;;;;;;;;;;;;;;-0.92;85.72;98181.81;1764087;81;20135;-39
2022/01/20 09:34:36;;;;;;;;;;;;;;;-0.93;85.43;98174.11;1763884;80;20433;-39
2022/01/20 09:37:02;;;;;;;;;;;;;;;-0.88;84.89;98162.77;1764015;81;20136;-40
2022/01/20 09:39:27;;;;;;;;;;;;;;;-0.85;84.56;98163.98;1764126;81;20393;-39
2022/01/20 09:41:53;;;;;;;;;;;;;;;-0.82;84.34;98166.49;1763985;81;20109;-38
2022/01/20 09:44:20;;;;;;;;;;;;;;;-0.69;83.96;98161.84;1764049;80;20108;-40
2022/01/20 09:46:46;;;;;;;;;;;;;;;-0.66;83.29;98162.19;1763918;80;20162;-39
2022/01/20 09:49:13;;;;;;;;;;;;;;;-0.60;82.79;98169.32;1764076;81;20136;-39
2022/01/20 09:51:39;;;;;;;;;;;;;;;-0.54;82.09;98170.88;1764076;81;20136;-39
2022/01/20 09:54:05;;;;;;;;;;;;;;;-0.59;81.04;98163.25;1764001;81;20112;-39
2022/01/20 09:56:31;;;;;;;;;;;;;;;-0.40;81.20;98158.42;1763962;81;20129;-38
2022/01/20 09:58:57;;;;;;;;;;;;;;;-0.24;81.32;98168.28;1763966;81;20108;-38
2022/01/20 10:01:40;;;;;;;;;;;;;;;-0.37;79.52;98150.17;1763932;80;20112;-37
2022/01/20 10:04:26;;;;;;;;;;;;;;;-0.29;79.46;98157.23;1763459;81;20108;-38
2022/01/20 10:07:01;;;;;;;;;;;;;;;-0.32;78.98;98167.68;1764128;81;20132;-38
2022/01/20 10:09:37;;;;;;;;;;;;;;;-0.41;78.02;98160.59;1762928;81;20100;-38
2022/01/20 10:12:05;;;;;;;;;;;;;;;-0.39;77.93;98149.77;1762972;81;20176;-38
2022/01/20 10:14:40;;;;;;;;;;;;;;;-0.42;77.74;98136.09;1763430;81;20490;-37
2022/01/20 10:17:21;;;;;;;;;;;;;;;-0.34;77.23;98144.92;1761791;80;20124;-38
2022/01/20 10:19:49;;;;;;;;;;;;;;;-0.50;76.80;98142.78;1761600;80;20471;-39
2022/01/20 10:22:16;;;;;;;;;;;;;;;-0.56;76.30;98142.97;1764120;81;20104;-38
2022/01/20 10:24:42;;;;;;;;;;;;;;;-0.63;76.27;98158.23;1764139;81;20124;-38
2022/01/20 10:27:11;;;;;;;;;;;;;;;-0.74;75.82;98147.37;1771606;81;20128;-38
2022/01/20 10:29:36;;;;;;;;;;;;;;;-0.70;75.91;98145.93;1762838;81;20132;-38
2022/01/20 10:32:03;;;;;;;;;;;;;;;-0.59;76.41;98152.08;1762836;81;20136;-38
2022/01/20 10:34:37;;;;;;;;;;;;;;;-0.51;75.17;98151.44;1763965;81;20538;-37
2022/01/20 10:37:07;;;;;;;;;;;;;;;-0.37;74.62;98146.30;1763996;80;20504;-37
2022/01/20 10:39:37;;;;;;;;;;;;;;;-0.30;73.67;98152.52;1746849;81;20568;-37
2022/01/20 10:42:09;;;;;;;;;;;;;;;-0.31;73.13;98146.11;1763393;81;20428;-37
2022/01/20 10:44:44;;;;;;;;;;;;;;;-0.23;73.54;98160.49;1763081;81;20157;-38
2022/01/20 10:47:14;;;;;;;;;;;;;;;-0.18;72.93;98155.20;1763178;81;20116;-37
2022/01/20 10:49:41;;;;;;;;;;;;;;;0.01;74.02;98141.26;1763015;81;20968;-38
2022/01/20 10:52:09;;;;;;;;;;;;;;;0.01;72.92;98145.59;1763200;81;20096;-38
2022/01/20 10:54:37;;;;;;;;;;;;;;;0.07;73.19;98149.27;1764084;81;20113;-37
2022/01/20 10:57:03;;;;;;;;;;;;;;;0.08;72.96;98149.22;1762684;81;20156;-38
2022/01/20 10:59:29;;;;;;;;;;;;;;;0.08;71.98;98144.51;1762720;81;20518;-37
2022/01/20 11:02:07;;;;;;;;;;;;;;;0.21;72.61;98140.63;1764020;81;20104;-37
2022/01/20 11:04:33;;;;;;;;;;;;;;;0.19;71.84;98150.18;1763212;81;20128;-38
2022/01/20 11:07:03;;;;;;;;;;;;;;;0.24;71.69;98147.01;1763320;81;20155;-37
2022/01/20 11:09:29;;;;;;;;;;;;;;;0.24;71.24;98147.43;1763735;81;20401;-38
2022/01/20 11:11:56;;;;;;;;;;;;;;;0.19;71.38;98157.48;1746291;81;20439;-36
2022/01/20 11:14:21;;;;;;;;;;;;;;;0.30;71.71;98161.48;1764193;81;20105;-37
2022/01/20 11:16:48;;;;;;;;;;;;;;;0.28;71.30;98161.98;1764030;81;20100;-38
2022/01/20 11:19:17;;;;;;;;;;;;;;;0.24;70.99;98150.02;1763554;81;20140;-38
2022/01/20 11:21:44;;;;;;;;;;;;;;;0.30;71.44;98160.19;1762678;81;20112;-37
2022/01/20 11:24:24;;;;;;;;;;;;;;;0.30;71.41;98162.77;1763666;81;20128;-38
2022/01/20 11:26:55;;;;;;;;;;;;;;;0.28;70.82;98173.16;1763703;81;20160;-36
2022/01/20 11:29:27;;;;;;;;;;;;;;;0.20;70.81;98162.23;1762959;81;20136;-38
2022/01/20 11:31:52;;;;;;;;;;;;;;;0.23;71.62;98169.03;1761521;81;20115;-39
2022/01/20 11:34:20;;;;;;;;;;;;;;;0.26;71.31;98170.23;1763769;81;20108;-36
2022/01/20 11:36:48;;;;;;;;;;;;;;;0.24;71.01;98178.03;1763155;81;20127;-38
2022/01/20 11:39:14;;;;;;;;;;;;;;;0.20;70.92;98169.98;1763369;81;20127;-37
2022/01/20 11:41:49;;;;;;;;;;;;;;;0.23;70.77;98170.32;1763332;81;20136;-38
2022/01/20 11:44:20;;;;;;;;;;;;;;;0.44;71.68;98161.02;1759370;80;20109;-38
2022/01/20 11:46:49;;;;;;;;;;;;;;;0.52;70.67;98170.67;1750362;82;20129;-39
2022/01/20 11:49:17;;;;;;;;;;;;;;;0.59;70.18;98169.59;1749827;81;20111;-38
2022/01/20 11:51:56;;;;;;;;;;;;;;;0.80;70.64;98182.70;1749839;82;20107;-39
2022/01/20 11:54:28;;;;;;;;;;;;;;;0.74;70.36;98188.47;1750146;82;20110;-37
2022/01/20 11:57:21;;;;;;;;;;;;;;;0.61;70.63;98185.06;1750113;82;20106;-37
2022/01/20 11:59:51;;;;;;;;;;;;;;;0.53;70.68;98185.32;1750087;82;20111;-36
2022/01/20 12:02:37;;;;;;;;;;;;;;;0.42;70.39;98177.91;1749967;82;20131;-37
2022/01/20 12:05:26;;;;;;;;;;;;;;;0.38;70.66;98188.79;1750179;82;20106;-38
2022/01/20 12:07:50;;;;;;;;;;;;;;;0.20;70.37;98184.20;1749684;82;20166;-37
2022/01/20 12:10:19;;;;;;;;;;;;;;;-0.05;69.64;98190.11;1750133;82;20174;-38
2022/01/20 12:12:45;;;;;;;;;;;;;;;0.07;70.61;98208.72;1749470;82;20119;-38
2022/01/20 12:15:17;;;;;;;;;;;;;;;-0.21;70.01;98201.80;1749149;81;20142;-37
2022/01/20 12:17:51;;;;;;;;;;;;;;;-0.23;70.31;98206.16;1749703;82;20155;-39
2022/01/20 12:20:17;;;;;;;;;;;;;;;-0.31;70.42;98214.56;1747853;82;20443;-37
2022/01/20 12:22:44;;;;;;;;;;;;;;;-0.21;70.80;98222.46;1748822;82;20146;-38
2022/01/20 12:25:19;;;;;;;;;;;;;;;-0.23;69.97;98208.30;1749660;82;20177;-37
2022/01/20 12:27:46;;;;;;;;;;;;;;;-0.12;69.52;98201.52;1748774;82;20157;-38
2022/01/20 12:30:24;;;;;;;;;;;;;;;0.06;69.29;98202.71;1750154;82;20114;-38
2022/01/20 12:33:12;;;;;;;;;;;;;;;0.27;69.83;98205.52;1750167;82;20123;-38
2022/01/20 12:35:41;;;;;;;;;;;;;;;0.31;67.23;98211.86;1749778;82;20162;-38
2022/01/20 12:38:22;;;;;;;;;;;;;;;0.51;65.81;98190.53;1745571;82;20130;-38
2022/01/20 12:41:07;;;;;;;;;;;;;;;0.66;65.76;98189.19;1748681;82;20166;-39
2022/01/20 12:43:45;;;;;;;;;;;;;;;0.70;65.34;98184.30;1749269;82;20177;-37
2022/01/20 12:46:17;;;;;;;;;;;;;;;0.84;65.12;98178.67;1749922;81;20114;-38
2022/01/20 12:48:55;;;;;;;;;;;;;;;0.66;63.76;98169.78;1750241;82;20133;-37
2022/01/20 12:51:24;;;;;;;;;;;;;;;0.49;62.04;98188.45;1750222;82;20126;-39
2022/01/20 12:53:56;;;;;;;;;;;;;;;0.47;62.30;98179.03;1744150;82;20114;-38
2022/01/20 12:56:17;;;;;;;;;;;;;;;0.44;63.21;98186.45;1748426;81;20498;-37
2022/01/20 12:58:52;;;;;;;;;;;;;;;0.31;63.71;98214.87;1749247;82;20159;-38
2022/01/20 13:01:19;;;;;;;;;;;;;;;0.14;63.26;98205.89;1750063;82;20389;-38
2022/01/20 13:03:45;;;;;;;;;;;;;;;0.22;65.04;98204.81;1750101;82;20126;-38
2022/01/20 13:06:22;;;;;;;;;;;;;;;-0.08;68.92;98203.11;1750144;81;20165;-37
2022/01/20 13:08:42;;;;;;;;;;;;;;;-0.15;70.21;98211.94;1748510;82;20542;-38
2022/01/20 13:11:12;;;;;;;;;;;;;;;-0.12;69.46;98224.78;1750189;82;20415;-38
2022/01/20 13:13:37;;;;;;;;;;;;;;;-0.22;69.60;98222.05;1749656;82;20187;-38
2022/01/20 13:16:13;;;;;;;;;;;;;;;-0.57;71.29;98219.18;1750168;82;20451;-38
2022/01/20 13:18:38;;;;;;;;;;;;;;;-0.65;72.10;98226.69;1750060;82;20102;-38
2022/01/20 13:21:07;;;;;;;;;;;;;;;-0.66;72.24;98228.02;1749151;82;20503;-37
2022/01/20 13:23:55;;;;;;;;;;;;;;;-0.67;73.01;98236.67;1749842;82;20403;-37
2022/01/20 13:26:21;;;;;;;;;;;;;;;-0.86;75.86;98229.39;1751646;80;20209;-38
2022/01/20 13:29:03;;;;;;;;;;;;;;;-0.90;75.44;98230.81;1766172;80;20101;-38
2022/01/20 13:31:29;;;;;;;;;;;;;;;-0.73;75.31;98229.07;1766081;81;20121;-38
2022/01/20 13:34:01;;;;;;;;;;;;;;;-0.62;74.49;98248.56;1766389;80;20398;-38
2022/01/20 13:36:41;;;;;;;;;;;;;;;-0.67;74.37;98252.16;1765027;81;20134;-38
2022/01/20 13:39:06;;;;;;;;;;;;;;;-0.87;73.90;98253.52;1766169;80;20117;-38
2022/01/20 13:41:32;;;;;;;;;;;;;;;-0.80;73.66;98257.64;1766082;81;20146;-37
2022/01/20 13:46:47;;;;;;;;;;;;;;;-0.83;73.54;98240.93;1777447;79;20101;-37
2022/01/20 13:49:21;;;;;;;;;;;;;;;-0.93;73.73;98229.59;1777527;80;20100;-38
2022/01/20 13:51:59;;;;;;;;;;;;;;;-0.94;74.07;98224.89;1777282;81;20757;-38
2022/01/20 13:54:36;;;;;;;;;;;;;;;-0.86;74.00;98223.39;1777292;79;20105;-39
2022/01/20 13:57:02;;;;;;;;;;;;;;;-0.92;74.24;98238.59;1777310;80;20105;-38
2022/01/20 13:59:27;;;;;;;;;;;;;;;-0.91;74.86;98242.02;1777252;79;20112;-37
2022/01/20 14:01:53;;;;;;;;;;;;;;;-0.90;74.79;98227.78;1777312;80;20108;-38
2022/01/20 14:04:18;;;;;;;;;;;;;;;-0.87;74.98;98227.71;1777248;79;20129;-38